Time;durP1;ratioP1;P1;durP2;ratioP2;P2;SDS_P1;SDS_P2;PMS_P1;PMS_P2;Temp;Humidity;BMP_temperature;BMP_pressure;BME280_temperature;BME280_humidity;BME280_pressure;Samples;Min_cycle;Max_cycle;Signal;HPM_P1;HPM_P2
2021/03/06 00:00:24;;;;;;;1.77;1.67;;;0.00;98.00;;;;;;5014638;28;20578;-76
2021/03/06 00:02:51;;;;;;;1.90;1.80;;;0.00;98.10;;;;;;5013165;28;21034;-76
2021/03/06 00:05:19;;;;;;;1.80;1.70;;;-0.10;98.10;;;;;;5023852;28;20464;-77
2021/03/06 00:07:45;;;;;;;1.80;1.70;;;-0.10;97.60;;;;;;5030930;28;20481;-76
2021/03/06 00:10:14;;;;;;;1.70;1.60;;;-0.10;98.20;;;;;;5024542;28;20632;-76
2021/03/06 00:12:40;;;;;;;1.70;1.60;;;-0.10;98.20;;;;;;5022638;28;20497;-76
2021/03/06 00:15:09;;;;;;;1.80;1.70;;;-0.10;98.00;;;;;;5011748;28;20478;-77
2021/03/06 00:17:35;;;;;;;1.80;1.70;;;-0.20;97.80;;;;;;5019442;28;21058;-77
2021/03/06 00:20:02;;;;;;;1.80;1.70;;;-0.20;98.20;;;;;;5014078;28;20570;-77
2021/03/06 00:22:29;;;;;;;1.90;1.80;;;-0.20;98.10;;;;;;5005017;28;20493;-77
2021/03/06 00:24:56;;;;;;;1.70;1.60;;;-0.20;97.70;;;;;;5011170;28;20657;-77
2021/03/06 00:27:24;;;;;;;1.80;1.70;;;-0.20;98.00;;;;;;5013421;28;21087;-77
2021/03/06 00:29:50;;;;;;;1.80;1.70;;;-0.20;98.20;;;;;;5019033;28;20977;-77
2021/03/06 00:32:17;;;;;;;1.83;1.73;;;-0.20;98.20;;;;;;5019401;28;20536;-77
2021/03/06 00:34:43;;;;;;;1.80;1.70;;;-0.30;98.20;;;;;;5014072;28;20468;-77
2021/03/06 00:37:10;;;;;;;1.80;1.70;;;-0.30;97.70;;;;;;5014976;28;20572;-77
2021/03/06 00:39:36;;;;;;;1.73;1.63;;;-0.30;97.10;;;;;;5021081;28;20493;-77
2021/03/06 00:42:03;;;;;;;1.83;1.73;;;-0.40;97.50;;;;;;5015693;28;20485;-77
2021/03/06 00:44:30;;;;;;;1.93;1.83;;;-0.40;97.10;;;;;;5022570;28;20463;-77
2021/03/06 00:46:56;;;;;;;2.00;1.90;;;-0.40;97.50;;;;;;5012874;28;20565;-77
2021/03/06 00:49:23;;;;;;;1.90;1.80;;;-0.50;98.00;;;;;;5012852;28;20868;-76
2021/03/06 00:51:50;;;;;;;1.90;1.80;;;-0.50;97.90;;;;;;5009499;28;20483;-77
2021/03/06 00:54:16;;;;;;;1.90;1.80;;;-0.50;98.20;;;;;;5025494;28;20478;-77
2021/03/06 00:56:43;;;;;;;2.00;1.90;;;-0.50;98.20;;;;;;5015605;28;20843;-77
2021/03/06 00:59:09;;;;;;;1.93;1.83;;;-0.50;98.20;;;;;;5025946;28;21123;-76
2021/03/06 01:01:36;;;;;;;1.80;1.70;;;-0.50;98.20;;;;;;5019721;28;20564;-77
2021/03/06 01:04:03;;;;;;;1.90;1.80;;;-0.50;98.20;;;;;;5031259;28;20955;-76
2021/03/06 01:06:29;;;;;;;1.80;1.70;;;-0.60;98.20;;;;;;5016052;28;20490;-76
2021/03/06 01:08:56;;;;;;;1.80;1.70;;;-0.60;97.90;;;;;;5029866;28;20468;-77
2021/03/06 01:11:22;;;;;;;1.80;1.70;;;-0.60;98.10;;;;;;5014069;28;20558;-77
2021/03/06 01:13:48;;;;;;;2.63;2.43;;;-0.60;98.20;;;;;;5026612;28;20852;-77
2021/03/06 01:16:15;;;;;;;1.80;1.70;;;-0.60;98.20;;;;;;5008398;28;20521;-77
2021/03/06 01:18:42;;;;;;;1.90;1.80;;;-0.60;98.20;;;;;;5024260;28;20459;-76
2021/03/06 01:21:08;;;;;;;1.80;1.70;;;-0.60;98.20;;;;;;5016060;28;20565;-77
2021/03/06 01:23:35;;;;;;;2.00;1.90;;;-0.70;98.20;;;;;;5032486;28;20829;-77
2021/03/06 01:26:01;;;;;;;1.80;1.70;;;-0.70;98.10;;;;;;5006657;28;20566;-76
2021/03/06 01:28:27;;;;;;;1.80;1.70;;;-0.70;98.20;;;;;;5032169;28;20683;-77
2021/03/06 01:30:54;;;;;;;1.90;1.80;;;-0.70;98.20;;;;;;5003985;28;21036;-76
2021/03/06 01:33:20;;;;;;;1.80;1.70;;;-0.70;98.20;;;;;;5035519;28;20471;-77
2021/03/06 01:35:47;;;;;;;1.87;1.77;;;-0.80;98.20;;;;;;5020509;28;20467;-77
2021/03/06 01:38:14;;;;;;;1.80;1.70;;;-0.80;98.20;;;;;;5004062;28;20750;-77
2021/03/06 01:40:40;;;;;;;1.70;1.60;;;-0.80;98.20;;;;;;5024631;28;20852;-77
2021/03/06 01:43:09;;;;;;;3.43;3.23;;;-0.80;98.20;;;;;;5024419;28;20487;-77
2021/03/06 01:45:37;;;;;;;2.23;2.03;;;-0.80;98.20;;;;;;5015047;28;20904;-77
2021/03/06 01:48:04;;;;;;;1.90;1.80;;;-0.80;98.20;;;;;;5026056;28;20475;-77
2021/03/06 01:50:32;;;;;;;1.90;1.80;;;-0.80;98.20;;;;;;5018632;28;20909;-77
2021/03/06 01:53:02;;;;;;;1.73;1.63;;;-0.80;98.20;;;;;;5023882;28;20490;-77
2021/03/06 01:55:30;;;;;;;2.03;1.93;;;-0.80;98.20;;;;;;5026116;28;20470;-76
2021/03/06 01:57:58;;;;;;;1.80;1.70;;;-0.80;98.20;;;;;;5019285;28;20494;-76
2021/03/06 02:00:25;;;;;;;1.80;1.70;;;-0.80;98.20;;;;;;5016701;28;20491;-77
2021/03/06 02:02:54;;;;;;;1.80;1.70;;;-0.80;98.20;;;;;;5024961;28;20565;-77
2021/03/06 02:05:21;;;;;;;1.90;1.80;;;-0.90;98.20;;;;;;5016915;28;20622;-77
2021/03/06 02:07:47;;;;;;;1.90;1.80;;;-0.90;98.20;;;;;;5022023;28;21180;-76
2021/03/06 02:10:17;;;;;;;1.80;1.70;;;-0.90;98.20;;;;;;5019899;28;20486;-76
2021/03/06 02:12:54;;;;;;;1.90;1.80;;;-0.90;98.20;;;;;;5020515;28;20483;-77
2021/03/06 02:15:32;;;;;;;1.80;1.70;;;-0.90;98.20;;;;;;5020781;28;20474;-76
2021/03/06 02:18:07;;;;;;;1.90;1.80;;;-0.90;98.20;;;;;;5025194;28;20486;-76
2021/03/06 02:20:50;;;;;;;1.80;1.70;;;-1.00;98.20;;;;;;5020043;28;20912;-76
2021/03/06 02:23:52;;;;;;;1.90;1.80;;;-1.00;98.20;;;;;;4999859;28;20491;-76
2021/03/06 02:26:28;;;;;;;1.90;1.80;;;-1.00;98.20;;;;;;5013392;28;20879;-76
2021/03/06 02:29:26;;;;;;;1.90;1.80;;;-1.00;98.20;;;;;;5022931;28;20498;-77
2021/03/06 02:31:55;;;;;;;1.90;1.80;;;-1.00;98.20;;;;;;5017388;28;21005;-77
2021/03/06 02:34:26;;;;;;;2.10;2.00;;;-1.00;98.20;;;;;;5022094;28;20775;-76
2021/03/06 02:36:57;;;;;;;1.90;1.80;;;-1.00;98.20;;;;;;5015336;28;20578;-77
2021/03/06 02:39:26;;;;;;;1.87;1.77;;;-1.10;98.20;;;;;;5019229;28;20483;-76
2021/03/06 02:41:55;;;;;;;1.80;1.70;;;-1.10;98.20;;;;;;5017473;28;20488;-77
2021/03/06 02:44:24;;;;;;;1.90;1.80;;;-1.10;98.20;;;;;;5024901;28;20849;-76
2021/03/06 02:46:55;;;;;;;1.90;1.80;;;-1.10;98.20;;;;;;5010713;28;21019;-77
2021/03/06 02:49:21;;;;;;;1.90;1.80;;;-1.20;98.20;;;;;;5025527;28;20540;-76
2021/03/06 02:51:48;;;;;;;1.90;1.80;;;-1.20;98.20;;;;;;5014508;28;20486;-76
2021/03/06 02:54:15;;;;;;;2.10;2.00;;;-1.20;98.20;;;;;;5021304;28;20498;-77
2021/03/06 02:56:41;;;;;;;1.90;1.80;;;-1.20;98.20;;;;;;5009560;28;20533;-77
2021/03/06 02:59:29;;;;;;;1.87;1.77;;;-1.20;98.20;;;;;;5021579;28;20471;-77
2021/03/06 03:02:06;;;;;;;1.90;1.80;;;-1.20;98.20;;;;;;5014335;28;20724;-76
2021/03/06 03:04:42;;;;;;;1.90;1.80;;;-1.20;98.20;;;;;;5021410;28;20516;-76
2021/03/06 03:07:11;;;;;;;1.80;1.70;;;-1.20;98.20;;;;;;5018518;28;20917;-76
2021/03/06 03:09:42;;;;;;;2.00;1.90;;;-1.20;98.20;;;;;;5020257;28;20512;-76
2021/03/06 03:12:13;;;;;;;2.00;1.90;;;-1.20;98.20;;;;;;5012460;28;20486;-77
2021/03/06 03:14:46;;;;;;;1.87;1.77;;;-1.20;98.20;;;;;;5022023;28;20697;-76
2021/03/06 03:17:18;;;;;;;2.07;1.97;;;-1.20;98.20;;;;;;5019093;28;20902;-76
2021/03/06 03:19:54;;;;;;;1.90;1.80;;;-1.20;98.20;;;;;;5021072;28;20816;-76
2021/03/06 03:22:23;;;;;;;1.90;1.80;;;-1.30;98.20;;;;;;5019380;28;20612;-76
2021/03/06 03:24:51;;;;;;;1.80;1.70;;;-1.30;98.20;;;;;;5016406;28;20606;-77
2021/03/06 03:27:20;;;;;;;1.93;1.83;;;-1.30;98.20;;;;;;5017166;28;20483;-77
2021/03/06 03:29:49;;;;;;;1.90;1.80;;;-1.30;98.20;;;;;;5028893;28;20493;-77
2021/03/06 03:32:16;;;;;;;1.93;1.83;;;-1.30;98.20;;;;;;5018660;28;20574;-77
2021/03/06 03:34:43;;;;;;;2.00;1.90;;;-1.30;98.20;;;;;;5020617;28;20478;-76
2021/03/06 03:37:11;;;;;;;1.90;1.80;;;-1.30;98.20;;;;;;5007237;28;20507;-76
2021/03/06 03:39:38;;;;;;;1.90;1.80;;;-1.30;98.20;;;;;;5016046;28;20540;-76
2021/03/06 03:42:06;;;;;;;2.00;1.90;;;-1.30;98.20;;;;;;5007224;28;20495;-76
2021/03/06 03:44:34;;;;;;;2.10;2.00;;;-1.30;98.20;;;;;;5012475;28;20474;-76
2021/03/06 03:47:03;;;;;;;1.80;1.70;;;-1.40;98.20;;;;;;5022831;28;20628;-76
2021/03/06 03:49:30;;;;;;;2.10;2.00;;;-1.40;98.20;;;;;;5026589;28;20509;-76
2021/03/06 03:51:57;;;;;;;2.13;2.03;;;-1.40;98.20;;;;;;5013662;28;20494;-76
2021/03/06 03:54:23;;;;;;;1.90;1.80;;;-1.50;98.20;;;;;;5023550;28;20473;-78
2021/03/06 03:56:50;;;;;;;2.00;1.90;;;-1.50;98.20;;;;;;5022505;28;20651;-75
2021/03/06 03:59:16;;;;;;;2.03;1.93;;;-1.50;98.20;;;;;;5018964;28;20494;-76
2021/03/06 04:01:44;;;;;;;2.00;1.90;;;-1.50;98.20;;;;;;5013154;28;20578;-76
2021/03/06 04:04:28;;;;;;;1.80;1.70;;;-1.50;98.20;;;;;;5025069;28;20466;-76
2021/03/06 04:06:55;;;;;;;1.90;1.80;;;-1.50;98.20;;;;;;5013617;28;20486;-76
2021/03/06 04:09:22;;;;;;;2.03;1.93;;;-1.50;98.20;;;;;;5019187;28;20486;-78
2021/03/06 04:11:48;;;;;;;1.90;1.80;;;-1.50;98.20;;;;;;5010984;28;20537;-76
2021/03/06 04:14:15;;;;;;;1.80;1.70;;;-1.50;98.20;;;;;;5022588;28;20471;-76
2021/03/06 04:16:41;;;;;;;1.90;1.80;;;-1.50;98.20;;;;;;5010391;28;20482;-76
2021/03/06 04:19:07;;;;;;;1.93;1.83;;;-1.50;98.20;;;;;;5021374;28;21092;-76
2021/03/06 04:21:36;;;;;;;1.90;1.80;;;-1.50;98.20;;;;;;5015922;28;20493;-76
2021/03/06 04:24:03;;;;;;;1.87;1.77;;;-1.50;98.20;;;;;;5022152;28;20490;-76
2021/03/06 04:26:30;;;;;;;1.90;1.80;;;-1.60;98.20;;;;;;5009977;28;21029;-76
2021/03/06 04:28:56;;;;;;;1.90;1.80;;;-1.60;98.20;;;;;;5028604;28;20472;-76
2021/03/06 04:31:22;;;;;;;1.90;1.80;;;-1.60;98.20;;;;;;5015252;28;20514;-77
2021/03/06 04:33:49;;;;;;;1.90;1.80;;;-1.50;98.20;;;;;;5029987;28;20478;-76
2021/03/06 04:36:18;;;;;;;1.80;1.70;;;-1.60;98.20;;;;;;5013256;28;20589;-76
2021/03/06 04:38:45;;;;;;;1.80;1.70;;;-1.60;98.20;;;;;;5014859;28;20500;-77
2021/03/06 04:41:11;;;;;;;2.00;1.90;;;-1.60;98.20;;;;;;5008192;28;20478;-76
2021/03/06 04:43:40;;;;;;;1.90;1.80;;;-1.60;98.20;;;;;;5026500;28;20894;-76
2021/03/06 04:46:07;;;;;;;1.87;1.77;;;-1.60;98.20;;;;;;5014420;28;20525;-76
2021/03/06 04:48:35;;;;;;;1.90;1.80;;;-1.60;98.20;;;;;;5027327;28;20467;-76
2021/03/06 04:51:02;;;;;;;1.80;1.70;;;-1.60;98.20;;;;;;5041404;22;20518;-77
2021/03/06 04:53:28;;;;;;;2.10;2.00;;;-1.70;98.20;;;;;;5048202;28;20471;-77
2021/03/06 04:55:55;;;;;;;2.00;1.90;;;-1.70;98.20;;;;;;5024030;28;20480;-78
2021/03/06 04:58:22;;;;;;;2.10;2.00;;;-1.70;98.20;;;;;;5052121;28;20505;-75
2021/03/06 05:00:48;;;;;;;2.20;2.10;;;-1.70;98.20;;;;;;5030722;28;20494;-77
2021/03/06 05:03:14;;;;;;;1.83;1.73;;;-1.70;98.20;;;;;;5034389;28;20468;-74
2021/03/06 05:05:41;;;;;;;1.90;1.80;;;-1.70;98.20;;;;;;5015781;28;20475;-77
2021/03/06 05:08:07;;;;;;;2.20;2.10;;;-1.70;98.20;;;;;;5028491;28;20487;-76
2021/03/06 05:10:33;;;;;;;1.90;1.80;;;-1.70;98.20;;;;;;5021280;28;20883;-77
2021/03/06 05:13:00;;;;;;;1.90;1.80;;;-1.70;98.20;;;;;;5027688;28;20667;-74
2021/03/06 05:15:28;;;;;;;1.93;1.83;;;-1.70;98.20;;;;;;5023609;28;20474;-75
2021/03/06 05:17:54;;;;;;;1.80;1.70;;;-1.70;98.20;;;;;;5027364;28;20486;-76
2021/03/06 05:20:20;;;;;;;1.80;1.70;;;-1.80;98.20;;;;;;5024121;28;20470;-75
2021/03/06 05:22:47;;;;;;;1.93;1.83;;;-1.80;98.20;;;;;;5024001;28;20490;-75
2021/03/06 05:25:13;;;;;;;2.00;1.90;;;-1.80;98.20;;;;;;5020743;28;21025;-75
2021/03/06 05:27:39;;;;;;;1.80;1.70;;;-1.80;98.20;;;;;;5017059;28;21150;-76
2021/03/06 05:30:08;;;;;;;1.90;1.80;;;-1.80;98.20;;;;;;5014823;28;20839;-76
2021/03/06 05:32:34;;;;;;;1.90;1.80;;;-1.80;98.20;;;;;;5006868;28;20498;-75
2021/03/06 05:35:00;;;;;;;1.90;1.80;;;-1.80;98.20;;;;;;5020533;28;20848;-75
2021/03/06 05:37:27;;;;;;;1.80;1.70;;;-1.80;98.20;;;;;;5007924;28;20483;-76
2021/03/06 05:39:53;;;;;;;1.90;1.80;;;-1.80;98.20;;;;;;5017581;28;20472;-77
2021/03/06 05:42:20;;;;;;;2.10;2.00;;;-1.80;98.20;;;;;;5022149;28;20539;-76
2021/03/06 05:44:46;;;;;;;2.10;2.00;;;-1.80;98.20;;;;;;5022318;28;20475;-75
2021/03/06 05:47:14;;;;;;;1.87;1.77;;;-1.90;98.20;;;;;;5019235;28;20565;-75
2021/03/06 05:49:40;;;;;;;1.90;1.80;;;-1.90;98.20;;;;;;5016629;28;20468;-76
2021/03/06 05:52:08;;;;;;;1.80;1.70;;;-1.90;98.20;;;;;;5013600;28;20496;-76
2021/03/06 05:54:36;;;;;;;1.80;1.70;;;-1.90;98.20;;;;;;5019265;28;20544;-75
2021/03/06 05:57:04;;;;;;;1.90;1.80;;;-1.90;98.20;;;;;;5014736;28;20494;-78
2021/03/06 05:59:31;;;;;;;2.00;1.90;;;-1.90;98.20;;;;;;5026131;28;20467;-77
2021/03/06 06:01:59;;;;;;;2.00;1.90;;;-1.90;98.20;;;;;;5018764;28;20509;-76
2021/03/06 06:04:28;;;;;;;2.00;1.90;;;-1.90;98.20;;;;;;5018592;28;20496;-77
2021/03/06 06:06:56;;;;;;;1.90;1.80;;;-1.90;98.20;;;;;;5020728;28;20513;-75
2021/03/06 06:09:22;;;;;;;1.90;1.80;;;-1.90;98.20;;;;;;5019280;28;20465;-75
2021/03/06 06:11:48;;;;;;;1.90;1.80;;;-2.00;98.20;;;;;;5018376;28;20863;-75
2021/03/06 06:14:15;;;;;;;1.90;1.80;;;-2.00;98.20;;;;;;5024388;28;20468;-78
2021/03/06 06:16:42;;;;;;;2.17;2.07;;;-2.00;98.20;;;;;;5017480;28;20508;-76
2021/03/06 06:19:08;;;;;;;1.90;1.80;;;-2.00;98.20;;;;;;5018602;28;20547;-76
2021/03/06 06:21:37;;;;;;;2.10;2.00;;;-2.00;98.20;;;;;;5017431;28;20878;-75
2021/03/06 06:24:05;;;;;;;2.30;2.20;;;-2.00;98.20;;;;;;5023575;28;20592;-76
2021/03/06 06:26:31;;;;;;;1.90;1.80;;;-1.90;98.20;;;;;;5012206;28;20521;-75
2021/03/06 06:28:57;;;;;;;1.80;1.70;;;-1.90;98.20;;;;;;5019589;28;20470;-75
2021/03/06 06:31:24;;;;;;;1.90;1.80;;;-1.90;98.20;;;;;;5013754;28;20478;-75
2021/03/06 06:33:52;;;;;;;1.80;1.70;;;-1.90;98.20;;;;;;5023141;28;20467;-76
2021/03/06 06:36:35;;;;;;;1.80;1.70;;;-1.90;98.20;;;;;;5014983;28;20903;-75
2021/03/06 06:39:03;;;;;;;2.67;2.47;;;-1.90;98.20;;;;;;5024667;28;20467;-75
2021/03/06 06:41:52;;;;;;;1.90;1.80;;;-1.90;98.20;;;;;;5008191;28;20872;-76
2021/03/06 06:44:19;;;;;;;1.80;1.70;;;-1.80;98.20;;;;;;5022262;28;20478;-76
2021/03/06 06:46:45;;;;;;;1.77;1.67;;;-1.80;98.20;;;;;;5007582;28;21239;-77
2021/03/06 06:49:12;;;;;;;1.90;1.80;;;-1.70;98.20;;;;;;5019854;28;20493;-76
2021/03/06 06:51:56;;;;;;;1.80;1.70;;;-1.60;98.20;;;;;;5013536;28;20482;-76
2021/03/06 06:54:24;;;;;;;1.90;1.80;;;-1.50;98.20;;;;;;5021986;28;20466;-76
2021/03/06 06:56:50;;;;;;;1.80;1.70;;;-1.30;98.20;;;;;;5018366;28;20546;-76
2021/03/06 06:59:18;;;;;;;2.00;1.90;;;-1.20;98.20;;;;;;5026894;28;20459;-76
2021/03/06 07:01:45;;;;;;;2.00;1.90;;;-1.00;98.20;;;;;;5021429;28;20489;-75
2021/03/06 07:04:13;;;;;;;1.83;1.73;;;-0.80;98.20;;;;;;5019549;28;20938;-77
2021/03/06 07:06:39;;;;;;;2.10;2.00;;;-0.60;98.20;;;;;;5013456;28;20484;-77
2021/03/06 07:09:10;;;;;;;2.10;2.00;;;-0.40;98.20;;;;;;5024308;28;20808;-77
2021/03/06 07:11:39;;;;;;;1.80;1.70;;;-0.20;98.20;;;;;;5013278;28;20525;-77
2021/03/06 07:14:05;;;;;;;1.80;1.70;;;-0.10;98.20;;;;;;5024936;28;20463;-78
2021/03/06 07:17:00;;;;;;;1.90;1.80;;;0.10;98.20;;;;;;5015450;28;20548;-78
2021/03/06 07:19:29;;;;;;;1.80;1.70;;;0.30;98.20;;;;;;5025256;28;20761;-78
2021/03/06 07:21:57;;;;;;;1.80;1.70;;;0.50;98.20;;;;;;5022295;28;20595;-80
2021/03/06 07:24:25;;;;;;;1.80;1.70;;;0.60;98.20;;;;;;5020334;28;20486;-78
2021/03/06 07:26:53;;;;;;;1.90;1.80;;;0.70;98.20;;;;;;5022337;28;20482;-77
2021/03/06 07:29:20;;;;;;;1.80;1.70;;;0.90;98.20;;;;;;5020462;28;20553;-77
2021/03/06 07:31:51;;;;;;;1.80;1.70;;;1.10;98.20;;;;;;5012295;28;21024;-75
2021/03/06 07:34:23;;;;;;;1.80;1.70;;;1.30;98.20;;;;;;5027573;28;20470;-77
2021/03/06 07:36:50;;;;;;;1.63;1.50;;;1.50;98.20;;;;;;5023385;28;20490;-76
2021/03/06 07:39:18;;;;;;;1.73;1.63;;;1.70;98.20;;;;;;5028722;28;20467;-76
2021/03/06 07:41:52;;;;;;;1.70;1.60;;;1.90;98.20;;;;;;5017649;28;20479;-77
2021/03/06 07:44:22;;;;;;;1.67;1.53;;;2.10;98.20;;;;;;5031194;28;20953;-78
2021/03/06 07:46:51;;;;;;;1.70;1.60;;;2.20;98.20;;;;;;5017968;28;20577;-78
2021/03/06 07:49:22;;;;;;;1.70;1.60;;;2.30;98.20;;;;;;5024135;28;20468;-78
2021/03/06 07:51:49;;;;;;;1.63;1.50;;;2.40;98.10;;;;;;5017483;28;20584;-78
2021/03/06 07:54:15;;;;;;;1.70;1.60;;;2.50;97.80;;;;;;5022508;28;20840;-79
2021/03/06 07:56:42;;;;;;;1.73;1.63;;;2.60;98.20;;;;;;5011789;28;21616;-78
2021/03/06 07:59:09;;;;;;;1.70;1.60;;;2.70;98.20;;;;;;5021593;28;20473;-79
2021/03/06 08:01:37;;;;;;;1.80;1.70;;;3.00;97.70;;;;;;5015464;28;20486;-79
2021/03/06 08:04:04;;;;;;;1.67;1.53;;;3.10;97.40;;;;;;5024903;28;20975;-79
2021/03/06 08:06:32;;;;;;;10.53;9.83;;;3.30;96.80;;;;;;5012601;28;20512;-79
2021/03/06 08:09:06;;;;;;;1.70;1.57;;;3.50;96.00;;;;;;5027769;28;20922;-79
2021/03/06 08:11:46;;;;;;;1.70;1.60;;;3.60;94.30;;;;;;5016231;28;20567;-79
2021/03/06 08:14:39;;;;;;;1.63;1.40;;;3.80;94.50;;;;;;5019190;28;20470;-79
2021/03/06 08:17:36;;;;;;;1.60;1.40;;;4.00;94.90;;;;;;5014633;28;20500;-78
2021/03/06 08:20:03;;;;;;;1.63;1.40;;;4.10;94.90;;;;;;5016448;28;20759;-79
2021/03/06 08:22:31;;;;;;;1.67;1.40;;;4.20;93.40;;;;;;5020779;28;20479;-80
2021/03/06 08:25:18;;;;;;;1.60;1.37;;;4.30;93.70;;;;;;5020554;28;20467;-79
2021/03/06 08:27:44;;;;;;;1.60;1.40;;;4.40;92.00;;;;;;5021806;28;21021;-80
2021/03/06 08:30:27;;;;;;;1.63;1.40;;;4.50;91.10;;;;;;5020893;28;20470;-80
2021/03/06 08:33:16;;;;;;;1.60;1.40;;;4.60;89.30;;;;;;5028502;28;20474;-80
2021/03/06 08:35:43;;;;;;;1.60;1.40;;;4.60;89.90;;;;;;5017856;28;20466;-79
2021/03/06 08:38:29;;;;;;;1.70;1.40;;;4.70;90.80;;;;;;5028220;28;20484;-79
2021/03/06 08:40:57;;;;;;;1.60;1.40;;;4.90;90.60;;;;;;5013025;28;20993;-79
2021/03/06 08:43:24;;;;;;;1.60;1.30;;;5.00;90.00;;;;;;5032285;28;20522;-78
2021/03/06 08:45:51;;;;;;;1.67;1.50;;;5.10;89.30;;;;;;5011699;28;20459;-78
2021/03/06 08:48:22;;;;;;;1.67;1.50;;;5.30;89.40;;;;;;5038763;28;20984;-78
2021/03/06 08:50:49;;;;;;;1.60;1.30;;;5.50;89.10;;;;;;5010209;28;20591;-79
2021/03/06 08:53:16;;;;;;;1.60;1.40;;;5.60;89.30;;;;;;5031383;28;20455;-76
2021/03/06 08:55:45;;;;;;;1.60;1.40;;;5.70;89.50;;;;;;5020749;28;20459;-76
2021/03/06 08:58:12;;;;;;;1.60;1.30;;;5.80;88.80;;;;;;5011644;28;20533;-76
2021/03/06 09:00:41;;;;;;;5.00;4.60;;;5.80;88.50;;;;;;5017289;28;20992;-78
2021/03/06 09:03:15;;;;;;;1.60;1.30;;;5.90;88.60;;;;;;5014158;28;20495;-76
2021/03/06 09:05:43;;;;;;;1.60;1.20;;;6.00;87.90;;;;;;5024338;28;20472;-76
2021/03/06 09:08:10;;;;;;;1.60;1.40;;;6.10;87.80;;;;;;5022866;28;20486;-76
2021/03/06 09:10:39;;;;;;;1.60;1.40;;;6.30;85.20;;;;;;5020967;28;20494;-76
2021/03/06 09:13:11;;;;;;;1.60;1.30;;;6.30;84.30;;;;;;5024409;28;21070;-76
2021/03/06 09:15:49;;;;;;;1.60;1.30;;;6.30;84.70;;;;;;5020255;28;20475;-76
2021/03/06 09:18:18;;;;;;;1.60;1.40;;;6.40;84.40;;;;;;5000645;28;20487;-75
2021/03/06 09:20:49;;;;;;;1.60;1.30;;;6.50;84.80;;;;;;5017349;28;20659;-75
2021/03/06 09:23:28;;;;;;;1.60;1.20;;;6.70;84.90;;;;;;5009551;28;21001;-76
2021/03/06 09:25:56;;;;;;;1.60;1.23;;;6.90;83.00;;;;;;4998860;28;20463;-77
2021/03/06 09:28:24;;;;;;;1.57;1.20;;;7.00;81.20;;;;;;5035225;28;20554;-75
2021/03/06 09:30:51;;;;;;;1.60;1.40;;;7.10;80.80;;;;;;5014439;28;20802;-77
2021/03/06 09:33:29;;;;;;;1.60;1.20;;;7.30;81.80;;;;;;5027034;28;20461;-75
2021/03/06 09:36:05;;;;;;;1.60;1.20;;;7.40;79.60;;;;;;5010338;28;20467;-75
2021/03/06 09:38:32;;;;;;;1.60;1.40;;;7.30;78.10;;;;;;5029731;28;20858;-77
2021/03/06 09:40:59;;;;;;;1.57;1.20;;;7.30;79.10;;;;;;5010947;28;20493;-76
2021/03/06 09:43:31;;;;;;;1.60;1.30;;;7.50;78.10;;;;;;5038074;28;20519;-76
2021/03/06 09:45:59;;;;;;;1.60;1.20;;;7.60;78.20;;;;;;5003574;28;20465;-76
2021/03/06 09:48:27;;;;;;;1.60;1.20;;;7.70;76.90;;;;;;5028005;28;20542;-75
2021/03/06 09:50:57;;;;;;;1.60;1.30;;;7.80;76.10;;;;;;5012442;28;20610;-76
2021/03/06 09:53:25;;;;;;;1.60;1.30;;;7.80;77.30;;;;;;5031342;28;20558;-76
2021/03/06 09:56:07;;;;;;;1.60;1.20;;;7.80;76.60;;;;;;5000265;28;20464;-75
2021/03/06 09:58:34;;;;;;;1.60;1.30;;;7.90;77.50;;;;;;5022709;28;20500;-77
2021/03/06 10:01:17;;;;;;;1.60;1.30;;;8.00;76.70;;;;;;5008686;28;20628;-76
2021/03/06 10:03:45;;;;;;;1.60;1.20;;;8.10;75.10;;;;;;5023603;28;21022;-77
2021/03/06 10:06:14;;;;;;;1.53;1.20;;;8.10;75.10;;;;;;5015408;28;20482;-77
2021/03/06 10:08:47;;;;;;;1.60;1.30;;;8.10;75.60;;;;;;5035029;28;21285;-76
2021/03/06 10:11:14;;;;;;;1.57;1.20;;;8.10;76.30;;;;;;5009635;28;20895;-77
2021/03/06 10:13:43;;;;;;;1.57;1.20;;;8.30;76.30;;;;;;5033644;28;20462;-77
2021/03/06 10:16:10;;;;;;;1.60;1.20;;;8.30;75.60;;;;;;5016194;28;20988;-78
2021/03/06 10:18:38;;;;;;;1.50;1.10;;;8.40;75.70;;;;;;5044441;28;20476;-78
2021/03/06 10:21:12;;;;;;;1.50;1.10;;;8.50;77.10;;;;;;5018746;28;20538;-76
2021/03/06 10:23:39;;;;;;;1.60;1.10;;;8.60;76.70;;;;;;5026432;28;20490;-77
2021/03/06 10:26:23;;;;;;;1.53;1.10;;;8.80;74.50;;;;;;5010758;28;20472;-76
2021/03/06 10:28:52;;;;;;;1.57;1.20;;;8.80;74.80;;;;;;5030402;28;20473;-77
2021/03/06 10:31:29;;;;;;;1.60;1.20;;;8.70;75.90;;;;;;5008691;28;20642;-75
2021/03/06 10:33:55;;;;;;;1.60;1.20;;;8.70;75.40;;;;;;5025065;28;20583;-77
2021/03/06 10:36:22;;;;;;;1.60;1.17;;;8.80;75.40;;;;;;5018655;28;20833;-76
2021/03/06 10:38:48;;;;;;;1.53;1.20;;;8.90;74.80;;;;;;5029653;28;20614;-77
2021/03/06 10:41:17;;;;;;;1.57;1.20;;;9.00;76.10;;;;;;5015286;28;20490;-76
2021/03/06 10:43:50;;;;;;;1.77;1.63;;;9.10;74.70;;;;;;5027445;28;20532;-76
2021/03/06 10:46:18;;;;;;;1.60;1.10;;;9.10;74.20;;;;;;5013217;28;20595;-76
2021/03/06 10:48:51;;;;;;;1.53;1.10;;;9.20;74.10;;;;;;5023932;28;20470;-76
2021/03/06 10:51:17;;;;;;;1.50;1.10;;;9.30;73.00;;;;;;5012553;28;20497;-76
2021/03/06 10:53:58;;;;;;;1.53;1.20;;;9.40;72.70;;;;;;5030589;28;20491;-78
2021/03/06 10:56:25;;;;;;;1.60;1.20;;;9.60;72.90;;;;;;5012164;28;20478;-77
2021/03/06 10:58:52;;;;;;;1.57;1.13;;;9.60;71.10;;;;;;5030701;28;20486;-76
2021/03/06 11:01:19;;;;;;;1.60;1.20;;;9.60;69.90;;;;;;5006936;28;20506;-75
2021/03/06 11:03:47;;;;;;;1.60;1.10;;;9.40;69.60;;;;;;5023509;28;20489;-77
2021/03/06 11:06:14;;;;;;;2.07;1.77;;;9.50;69.80;;;;;;5016795;28;20954;-75
2021/03/06 11:08:41;;;;;;;1.50;1.10;;;9.40;69.80;;;;;;5049118;28;20467;-79
2021/03/06 11:11:08;;;;;;;1.60;1.27;;;9.50;69.50;;;;;;5021851;28;20484;-77
2021/03/06 11:13:42;;;;;;;1.60;1.20;;;9.40;70.10;;;;;;5033858;28;20459;-76
2021/03/06 11:16:09;;;;;;;1.50;1.00;;;9.50;68.80;;;;;;5008925;28;20474;-77
2021/03/06 11:18:38;;;;;;;1.60;1.20;;;9.60;69.20;;;;;;5023561;28;21075;-77
2021/03/06 11:21:05;;;;;;;1.60;1.20;;;9.60;68.70;;;;;;5012839;28;20487;-78
2021/03/06 11:23:33;;;;;;;1.50;1.10;;;9.70;68.30;;;;;;5034848;28;21199;-76
2021/03/06 11:25:59;;;;;;;1.53;1.00;;;9.70;69.30;;;;;;5015917;28;20574;-77
2021/03/06 11:28:26;;;;;;;1.53;1.10;;;9.80;68.80;;;;;;5024838;28;20470;-76
2021/03/06 11:30:53;;;;;;;1.60;1.20;;;10.00;71.10;;;;;;5010779;28;20944;-76
2021/03/06 11:33:20;;;;;;;1.53;1.10;;;10.40;69.40;;;;;;5032733;28;20463;-76
2021/03/06 11:35:49;;;;;;;1.53;1.10;;;10.50;67.90;;;;;;5008592;28;20472;-76
2021/03/06 11:38:17;;;;;;;1.60;1.20;;;10.70;68.00;;;;;;5026097;28;20468;-77
2021/03/06 11:40:45;;;;;;;1.60;1.10;;;10.70;67.00;;;;;;5025642;28;20487;-77
2021/03/06 11:43:12;;;;;;;1.57;1.00;;;10.70;67.70;;;;;;5003228;28;20514;-77
2021/03/06 11:45:39;;;;;;;1.50;1.10;;;10.90;68.40;;;;;;5019532;28;20882;-77
2021/03/06 11:48:06;;;;;;;2.27;2.07;;;11.10;67.80;;;;;;5022678;28;20667;-76
2021/03/06 11:50:37;;;;;;;1.57;1.00;;;11.20;66.70;;;;;;5014788;28;20481;-76
2021/03/06 11:53:04;;;;;;;1.60;1.10;;;11.30;67.40;;;;;;5022213;28;20487;-76
2021/03/06 11:55:31;;;;;;;1.57;1.00;;;11.40;67.60;;;;;;5015876;28;20476;-76
2021/03/06 11:57:57;;;;;;;1.53;1.00;;;11.50;66.50;;;;;;5023445;28;20836;-76
2021/03/06 12:00:25;;;;;;;1.53;1.07;;;11.60;64.80;;;;;;5022290;28;20474;-76
2021/03/06 12:02:52;;;;;;;1.60;1.10;;;11.40;63.90;;;;;;5013283;28;20476;-76
2021/03/06 12:05:19;;;;;;;1.60;1.20;;;11.30;64.30;;;;;;5019227;28;20475;-78
2021/03/06 12:07:51;;;;;;;1.50;1.00;;;11.30;66.40;;;;;;5029141;28;20532;-77
2021/03/06 12:10:24;;;;;;;1.57;1.03;;;11.40;67.30;;;;;;5023808;28;20463;-76
2021/03/06 12:12:50;;;;;;;1.53;1.10;;;11.60;65.50;;;;;;5020045;28;20478;-76
2021/03/06 12:15:19;;;;;;;1.50;1.00;;;11.60;63.10;;;;;;5006736;28;20562;-75
2021/03/06 12:17:46;;;;;;;1.57;1.10;;;11.70;64.10;;;;;;5019428;28;20532;-75
2021/03/06 12:20:13;;;;;;;1.53;1.00;;;11.70;64.60;;;;;;5011849;28;20512;-77
2021/03/06 12:22:40;;;;;;;1.57;1.00;;;11.60;63.30;;;;;;5021376;28;20506;-78
2021/03/06 12:25:09;;;;;;;1.60;1.00;;;11.70;63.80;;;;;;5022266;28;20477;-78
2021/03/06 12:27:36;;;;;;;1.57;1.03;;;11.80;62.40;;;;;;5014742;28;20548;-78
2021/03/06 12:30:06;;;;;;;1.50;1.00;;;11.80;62.80;;;;;;5011933;28;20600;-77
2021/03/06 12:32:32;;;;;;;1.53;1.00;;;11.80;63.20;;;;;;5012855;28;20992;-77
2021/03/06 12:34:59;;;;;;;1.57;1.00;;;12.00;64.00;;;;;;5017185;28;20462;-76
2021/03/06 12:37:25;;;;;;;1.60;1.00;;;12.20;63.70;;;;;;5020535;28;20471;-78
2021/03/06 12:39:52;;;;;;;1.53;1.00;;;12.20;62.00;;;;;;5031972;28;20533;-79
2021/03/06 12:42:19;;;;;;;1.53;1.00;;;12.00;62.60;;;;;;5008385;28;20569;-77
2021/03/06 12:44:45;;;;;;;1.60;1.10;;;12.00;63.60;;;;;;5010816;28;20479;-77
2021/03/06 12:47:11;;;;;;;1.60;1.10;;;12.10;63.60;;;;;;5012162;28;20524;-77
2021/03/06 12:49:38;;;;;;;1.53;1.00;;;12.20;64.30;;;;;;5009707;28;20577;-77
2021/03/06 12:52:05;;;;;;;1.50;1.00;;;12.40;64.50;;;;;;4998072;28;20495;-76
2021/03/06 12:54:31;;;;;;;1.60;1.10;;;12.60;61.30;;;;;;5019894;28;21248;-77
2021/03/06 12:56:58;;;;;;;1.57;1.00;;;12.70;62.70;;;;;;5021280;28;20537;-78
2021/03/06 12:59:25;;;;;;;1.60;1.00;;;12.70;62.30;;;;;;5015148;28;21014;-77